Time;durP1;ratioP1;P1;durP2;ratioP2;P2;SDS_P1;SDS_P2;PMS_P1;PMS_P2;Temp;Humidity;BMP_temperature;BMP_pressure;BME280_temperature;BME280_humidity;BME280_pressure;Samples;Min_cycle;Max_cycle;Signal;HPM_P1;HPM_P2
2023/05/11 00:01:41;;;;;;;;;;;10.60;99.90;;;;;;5058293;28;19925;-69
2023/05/11 00:04:07;;;;;;;;;;;10.60;99.90;;;;;;5079374;28;19925;-69
2023/05/11 00:06:33;;;;;;;;;;;10.60;99.90;;;;;;5059672;28;19967;-70
2023/05/11 00:08:58;;;;;;;;;;;10.60;99.90;;;;;;5071165;28;19964;-69
2023/05/11 00:11:24;;;;;;;;;;;10.70;99.90;;;;;;5060694;28;19983;-69
2023/05/11 00:13:49;;;;;;;;;;;10.70;99.90;;;;;;5065718;28;20053;-70
2023/05/11 00:16:15;;;;;;;;;;;10.70;99.90;;;;;;5067879;28;20021;-70
2023/05/11 00:18:40;;;;;;;;;;;10.70;99.90;;;;;;5058750;28;20260;-69
2023/05/11 00:21:06;;;;;;;;;;;10.70;99.90;;;;;;5071973;28;19931;-69
2023/05/11 00:23:32;;;;;;;;;;;10.80;99.90;;;;;;5068010;28;20378;-69
2023/05/11 00:25:57;;;;;;;;;;;10.80;99.90;;;;;;5066100;28;19925;-69
2023/05/11 00:28:23;;;;;;;;;;;10.80;99.90;;;;;;5053821;28;20286;-70
2023/05/11 00:30:48;;;;;;;;;;;10.70;99.90;;;;;;5070769;28;19931;-69
2023/05/11 00:33:14;;;;;;;;;;;10.80;99.90;;;;;;5073183;28;19924;-69
2023/05/11 00:35:39;;;;;;;;;;;10.80;99.90;;;;;;5041814;28;19934;-69
2023/05/11 00:38:05;;;;;;;;;;;10.80;99.90;;;;;;5071526;28;20015;-69
2023/05/11 00:40:31;;;;;;;;;;;10.70;99.90;;;;;;5076816;28;19972;-69
2023/05/11 00:42:56;;;;;;;;;;;10.70;99.90;;;;;;5064135;28;19932;-69
2023/05/11 00:45:22;;;;;;;;;;;10.70;99.90;;;;;;5069552;28;19924;-69
2023/05/11 00:47:48;;;;;;;;;;;10.80;99.90;;;;;;5067953;28;19924;-69
2023/05/11 00:50:14;;;;;;;;;;;10.80;99.90;;;;;;5073036;28;19924;-70
2023/05/11 00:52:40;;;;;;;;;;;10.70;99.90;;;;;;5050010;28;19947;-69
2023/05/11 00:55:06;;;;;;;;;;;10.70;99.90;;;;;;5054907;28;20343;-69
2023/05/11 00:57:35;;;;;;;;;;;10.60;99.90;;;;;;5077880;28;20301;-68
2023/05/11 01:00:01;;;;;;;;;;;10.50;99.90;;;;;;5051015;28;20297;-70
2023/05/11 01:02:27;;;;;;;;;;;10.50;99.90;;;;;;5072976;28;19951;-69
2023/05/11 01:04:52;;;;;;;;;;;10.50;99.90;;;;;;5065465;28;20374;-69
2023/05/11 01:07:22;;;;;;;;;;;10.50;99.90;;;;;;5061428;28;19978;-70
2023/05/11 01:09:47;;;;;;;;;;;10.60;99.90;;;;;;5054489;28;19979;-70
2023/05/11 01:12:16;;;;;;;;;;;10.60;99.90;;;;;;5062759;28;19928;-70
2023/05/11 01:14:42;;;;;;;;;;;10.60;99.90;;;;;;5071427;28;20260;-70
2023/05/11 01:17:30;;;;;;;;;;;10.60;99.90;;;;;;5064705;28;21975;-68
2023/05/11 01:19:57;;;;;;;;;;;10.60;99.90;;;;;;5053808;28;19961;-68
2023/05/11 01:22:42;;;;;;;;;;;10.60;99.90;;;;;;5071731;28;19972;-68
2023/05/11 01:25:10;;;;;;;;;;;10.60;99.90;;;;;;5067659;28;19929;-68
2023/05/11 01:27:47;;;;;;;;;;;10.60;99.90;;;;;;5045200;28;20390;-68
2023/05/11 01:30:27;;;;;;;;;;;10.60;99.90;;;;;;5062926;28;19972;-70
2023/05/11 01:32:54;;;;;;;;;;;10.60;99.90;;;;;;5070259;28;19947;-68
2023/05/11 01:35:22;;;;;;;;;;;10.60;99.90;;;;;;5057070;28;19933;-69
2023/05/11 01:37:51;;;;;;;;;;;10.60;99.90;;;;;;5066579;28;19924;-68
2023/05/11 01:40:20;;;;;;;;;;;10.60;99.90;;;;;;5065592;28;19924;-69
2023/05/11 01:42:50;;;;;;;;;;;10.60;99.90;;;;;;5070070;28;19962;-69
2023/05/11 01:45:17;;;;;;;;;;;10.60;99.90;;;;;;5066670;28;19931;-69
2023/05/11 01:47:44;;;;;;;;;;;10.60;99.90;;;;;;5064970;28;20294;-69
2023/05/11 01:50:10;;;;;;;;;;;10.50;99.90;;;;;;5050507;28;19924;-69
2023/05/11 01:52:37;;;;;;;;;;;10.60;99.90;;;;;;5060390;28;19925;-69
2023/05/11 01:55:04;;;;;;;;;;;10.50;99.90;;;;;;5068965;28;19932;-69
2023/05/11 01:57:31;;;;;;;;;;;10.50;99.90;;;;;;5058792;28;20019;-69
2023/05/11 01:59:56;;;;;;;;;;;10.50;99.90;;;;;;5063350;28;19932;-69
2023/05/11 02:02:22;;;;;;;;;;;10.50;99.90;;;;;;5064312;28;19925;-69
2023/05/11 02:04:49;;;;;;;;;;;10.50;99.90;;;;;;5068244;28;19928;-69
2023/05/11 02:07:15;;;;;;;;;;;10.50;99.90;;;;;;5066877;28;19924;-69
2023/05/11 02:09:40;;;;;;;;;;;10.50;99.90;;;;;;5061735;28;19924;-69
2023/05/11 02:12:08;;;;;;;;;;;10.60;99.90;;;;;;5062042;28;20449;-69
2023/05/11 02:14:33;;;;;;;;;;;10.50;99.90;;;;;;5068671;28;20011;-69
2023/05/11 02:17:00;;;;;;;;;;;10.50;99.90;;;;;;5070695;28;19924;-69
2023/05/11 02:19:27;;;;;;;;;;;10.50;99.90;;;;;;5051316;28;19925;-69
2023/05/11 02:21:53;;;;;;;;;;;10.50;99.90;;;;;;5062276;28;19924;-69
2023/05/11 02:24:20;;;;;;;;;;;10.50;99.90;;;;;;5062242;28;20289;-69
2023/05/11 02:26:45;;;;;;;;;;;10.50;99.90;;;;;;5055127;28;19924;-69
2023/05/11 02:29:11;;;;;;;;;;;10.50;99.90;;;;;;5033187;28;20293;-69
2023/05/11 02:31:41;;;;;;;;;;;10.40;99.90;;;;;;5060438;28;20043;-69
2023/05/11 02:34:17;;;;;;;;;;;10.50;99.90;;;;;;5064623;28;19924;-69
2023/05/11 02:36:44;;;;;;;;;;;10.40;99.90;;;;;;5064921;28;19960;-69
2023/05/11 02:39:11;;;;;;;;;;;10.40;99.90;;;;;;5068104;28;19932;-69
2023/05/11 02:41:40;;;;;;;;;;;10.40;99.90;;;;;;5054228;28;20004;-69
2023/05/11 02:44:07;;;;;;;;;;;10.40;99.90;;;;;;5066722;28;20011;-69
2023/05/11 02:46:34;;;;;;;;;;;10.30;99.90;;;;;;5059886;28;20294;-69
2023/05/11 02:49:01;;;;;;;;;;;10.20;99.90;;;;;;5062988;28;20298;-68
2023/05/11 02:51:29;;;;;;;;;;;10.30;99.90;;;;;;5065586;28;19924;-68
2023/05/11 02:53:56;;;;;;;;;;;10.30;99.90;;;;;;5050428;28;19932;-70
2023/05/11 02:56:22;;;;;;;;;;;10.30;99.90;;;;;;5058850;28;20370;-69
2023/05/11 02:58:48;;;;;;;;;;;10.30;99.90;;;;;;5072789;28;19931;-69
2023/05/11 03:01:14;;;;;;;;;;;10.30;99.90;;;;;;5070151;28;19924;-69
2023/05/11 03:03:39;;;;;;;;;;;10.30;99.90;;;;;;5072029;28;20366;-69
2023/05/11 03:06:05;;;;;;;;;;;10.30;99.90;;;;;;5057887;28;19957;-69
2023/05/11 03:08:31;;;;;;;;;;;10.30;99.90;;;;;;5069278;28;19954;-69
2023/05/11 03:10:56;;;;;;;;;;;10.30;99.90;;;;;;5055571;28;19924;-69
2023/05/11 03:13:22;;;;;;;;;;;10.30;99.90;;;;;;5053177;28;19932;-69
2023/05/11 03:15:49;;;;;;;;;;;10.30;99.90;;;;;;5032928;28;20383;-68
2023/05/11 03:18:15;;;;;;;;;;;10.30;99.90;;;;;;5056293;28;20567;-69
2023/05/11 03:20:41;;;;;;;;;;;10.30;99.90;;;;;;5063658;28;19964;-69
2023/05/11 03:23:07;;;;;;;;;;;10.30;99.90;;;;;;5069070;28;19928;-69
2023/05/11 03:25:33;;;;;;;;;;;10.30;99.90;;;;;;5068539;28;19928;-69
2023/05/11 03:27:59;;;;;;;;;;;10.30;99.90;;;;;;5079572;28;20320;-69
2023/05/11 03:30:26;;;;;;;;;;;10.30;99.90;;;;;;5058571;28;20302;-69
2023/05/11 03:32:52;;;;;;;;;;;10.30;99.90;;;;;;5095461;28;19924;-69
2023/05/11 03:35:18;;;;;;;;;;;10.30;99.90;;;;;;5036024;28;20294;-69
2023/05/11 03:37:43;;;;;;;;;;;10.30;99.90;;;;;;5054345;28;19975;-69
2023/05/11 03:40:11;;;;;;;;;;;10.30;99.90;;;;;;5064203;28;19924;-69
2023/05/11 03:42:36;;;;;;;;;;;10.30;99.90;;;;;;5072520;28;19959;-69
2023/05/11 03:45:03;;;;;;;;;;;10.30;99.90;;;;;;5069409;28;19929;-69
2023/05/11 03:47:30;;;;;;;;;;;10.30;99.90;;;;;;5054012;28;19928;-68
2023/05/11 03:49:56;;;;;;;;;;;10.30;99.90;;;;;;5083288;28;20030;-69
2023/05/11 03:52:22;;;;;;;;;;;10.30;99.90;;;;;;5067045;28;19924;-69
2023/05/11 03:54:48;;;;;;;;;;;10.30;99.90;;;;;;5069847;28;19932;-68
2023/05/11 03:57:13;;;;;;;;;;;10.30;99.90;;;;;;5070661;28;19960;-69
2023/05/11 03:59:39;;;;;;;;;;;10.30;99.90;;;;;;5050795;28;19925;-69
2023/05/11 04:02:05;;;;;;;;;;;10.40;99.90;;;;;;5064338;28;20399;-68
2023/05/11 04:04:30;;;;;;;;;;;10.30;99.90;;;;;;5068824;28;19928;-69
2023/05/11 04:06:56;;;;;;;;;;;10.30;99.90;;;;;;5062226;28;19924;-69
2023/05/11 04:09:22;;;;;;;;;;;10.40;99.90;;;;;;5067210;28;20011;-69
2023/05/11 04:11:48;;;;;;;;;;;10.30;99.90;;;;;;5059473;28;20087;-69
2023/05/11 04:14:13;;;;;;;;;;;10.40;99.90;;;;;;5059879;28;19925;-69
2023/05/11 04:16:39;;;;;;;;;;;10.30;99.90;;;;;;5067862;28;19931;-69
2023/05/11 04:19:05;;;;;;;;;;;10.40;99.90;;;;;;5068543;28;20386;-69
2023/05/11 04:21:31;;;;;;;;;;;10.40;99.90;;;;;;5062173;28;20156;-68
2023/05/11 04:23:57;;;;;;;;;;;10.40;99.90;;;;;;5062043;28;20019;-69
2023/05/11 04:26:22;;;;;;;;;;;10.40;99.90;;;;;;5073189;28;20392;-68
2023/05/11 04:28:48;;;;;;;;;;;10.40;99.90;;;;;;5065934;28;19932;-68
2023/05/11 04:31:13;;;;;;;;;;;10.40;99.90;;;;;;5065330;28;19924;-68
2023/05/11 04:33:39;;;;;;;;;;;10.40;99.90;;;;;;5062849;28;20381;-69
2023/05/11 04:36:05;;;;;;;;;;;10.40;99.90;;;;;;5067293;28;19925;-68
2023/05/11 04:38:30;;;;;;;;;;;10.40;99.90;;;;;;5055474;28;19939;-69
2023/05/11 04:40:56;;;;;;;;;;;10.30;99.90;;;;;;5060001;28;19925;-69
2023/05/11 04:43:22;;;;;;;;;;;10.40;99.90;;;;;;5072681;28;19986;-69
2023/05/11 04:45:48;;;;;;;;;;;10.40;99.90;;;;;;5066890;28;19931;-69
2023/05/11 04:48:14;;;;;;;;;;;10.40;99.90;;;;;;5060352;28;19974;-69
2023/05/11 04:50:39;;;;;;;;;;;10.40;99.90;;;;;;5065647;28;19929;-69
2023/05/11 04:53:05;;;;;;;;;;;10.30;99.90;;;;;;5058744;28;20533;-70
2023/05/11 04:55:30;;;;;;;;;;;10.40;99.90;;;;;;5075085;28;19985;-69
2023/05/11 04:57:56;;;;;;;;;;;10.40;99.90;;;;;;5065680;28;20333;-70
2023/05/11 05:00:22;;;;;;;;;;;10.30;99.90;;;;;;5065396;28;19931;-69
2023/05/11 05:02:49;;;;;;;;;;;10.40;99.90;;;;;;5070897;28;19982;-69
2023/05/11 05:05:15;;;;;;;;;;;10.40;99.90;;;;;;5060691;28;19964;-69
2023/05/11 05:07:40;;;;;;;;;;;10.40;99.90;;;;;;5062974;28;20041;-70
2023/05/11 05:10:07;;;;;;;;;;;10.40;99.90;;;;;;5062459;28;19925;-69
2023/05/11 05:12:34;;;;;;;;;;;10.40;99.90;;;;;;5057685;28;19924;-70
2023/05/11 05:14:59;;;;;;;;;;;10.50;99.90;;;;;;5065571;28;19932;-69
2023/05/11 05:17:25;;;;;;;;;;;10.50;99.90;;;;;;5067689;28;19925;-69
2023/05/11 05:19:50;;;;;;;;;;;10.50;99.90;;;;;;5066984;28;20328;-68
2023/05/11 05:22:16;;;;;;;;;;;10.50;99.90;;;;;;5043041;28;19976;-69
2023/05/11 05:24:42;;;;;;;;;;;10.50;99.90;;;;;;5057386;28;20007;-70
2023/05/11 05:27:07;;;;;;;;;;;10.50;99.90;;;;;;5074380;28;19926;-70
2023/05/11 05:29:33;;;;;;;;;;;10.50;99.90;;;;;;5055071;28;19924;-69
2023/05/11 05:31:58;;;;;;;;;;;10.50;99.90;;;;;;5067173;28;20015;-69
2023/05/11 05:34:24;;;;;;;;;;;10.50;99.90;;;;;;5069755;28;20018;-69
2023/05/11 05:36:50;;;;;;;;;;;10.60;99.90;;;;;;5073035;28;20447;-70
2023/05/11 05:39:15;;;;;;;;;;;10.60;99.90;;;;;;5068654;28;20086;-69
2023/05/11 05:41:41;;;;;;;;;;;11.20;99.90;;;;;;5080157;28;20449;-70
2023/05/11 05:44:07;;;;;;;;;;;10.60;99.90;;;;;;5065078;28;20428;-70
2023/05/11 05:46:35;;;;;;;;;;;10.70;99.90;;;;;;5067395;28;19968;-70
2023/05/11 05:49:01;;;;;;;;;;;10.70;99.90;;;;;;5072854;28;19925;-70
2023/05/11 05:51:26;;;;;;;;;;;10.70;99.90;;;;;;5064602;28;19999;-69
2023/05/11 05:53:52;;;;;;;;;;;10.70;99.90;;;;;;5062426;28;19967;-70
2023/05/11 05:56:18;;;;;;;;;;;10.80;99.90;;;;;;5047924;28;20011;-69
2023/05/11 05:58:43;;;;;;;;;;;10.80;99.90;;;;;;5068815;28;20011;-70
2023/05/11 06:01:09;;;;;;;;;;;10.80;99.90;;;;;;5065891;28;19928;-69
2023/05/11 06:03:34;;;;;;;;;;;10.70;99.90;;;;;;5064146;28;19925;-70
2023/05/11 06:06:03;;;;;;;;;;;10.80;99.90;;;;;;5044303;28;19933;-70
2023/05/11 06:08:28;;;;;;;;;;;10.90;99.90;;;;;;5067578;28;19929;-68
2023/05/11 06:10:55;;;;;;;;;;;10.90;99.90;;;;;;5050265;28;19924;-68
2023/05/11 06:13:20;;;;;;;;;;;11.00;99.90;;;;;;5064297;28;19942;-68
2023/05/11 06:15:46;;;;;;;;;;;10.90;99.90;;;;;;5059197;28;19925;-69
2023/05/11 06:18:11;;;;;;;;;;;11.00;99.90;;;;;;5055196;28;19932;-69
2023/05/11 06:20:37;;;;;;;;;;;11.00;99.90;;;;;;5067704;28;19925;-69
2023/05/11 06:23:02;;;;;;;;;;;11.00;99.90;;;;;;5062003;28;19931;-69
2023/05/11 06:25:28;;;;;;;;;;;11.00;99.90;;;;;;5068426;28;19948;-69
2023/05/11 06:27:53;;;;;;;;;;;11.10;99.90;;;;;;5060770;28;19932;-69
2023/05/11 06:30:19;;;;;;;;;;;11.20;99.90;;;;;;5066338;28;19925;-69
2023/05/11 06:32:44;;;;;;;;;;;11.20;99.90;;;;;;5059675;28;19925;-69
2023/05/11 06:35:10;;;;;;;;;;;11.20;99.90;;;;;;5056297;28;20280;-70
2023/05/11 06:37:35;;;;;;;;;;;11.30;99.90;;;;;;5059153;28;20379;-70
2023/05/11 06:40:01;;;;;;;;;;;11.20;99.90;;;;;;5067598;28;19924;-68
2023/05/11 06:42:26;;;;;;;;;;;11.30;99.90;;;;;;5064597;28;19925;-68
2023/05/11 06:44:52;;;;;;;;;;;11.30;99.90;;;;;;5057326;28;19925;-69
2023/05/11 06:47:17;;;;;;;;;;;11.30;99.90;;;;;;5065046;28;19951;-68
2023/05/11 06:49:43;;;;;;;;;;;11.30;99.90;;;;;;5067894;28;19946;-68
2023/05/11 06:52:09;;;;;;;;;;;11.30;99.90;;;;;;5065560;28;19932;-68
2023/05/11 06:54:35;;;;;;;;;;;11.30;99.90;;;;;;5061404;28;20271;-69
2023/05/11 06:57:02;;;;;;;;;;;11.40;99.90;;;;;;5054777;28;19971;-69
2023/05/11 06:59:28;;;;;;;;;;;11.30;99.90;;;;;;5064299;28;20379;-69
2023/05/11 07:01:54;;;;;;;;;;;11.40;99.90;;;;;;5067572;28;20291;-69
2023/05/11 07:04:19;;;;;;;;;;;11.40;99.90;;;;;;5072436;28;19936;-68
2023/05/11 07:06:45;;;;;;;;;;;11.50;99.90;;;;;;5052902;28;20007;-69
2023/05/11 07:09:10;;;;;;;;;;;11.60;99.90;;;;;;5073182;28;19932;-68
2023/05/11 07:11:36;;;;;;;;;;;11.50;99.90;;;;;;5076721;28;19925;-69
2023/05/11 07:14:02;;;;;;;;;;;11.50;99.90;;;;;;5081465;28;19975;-69
2023/05/11 07:16:27;;;;;;;;;;;11.60;99.90;;;;;;5061438;28;20073;-69
2023/05/11 07:18:53;;;;;;;;;;;11.60;99.90;;;;;;5074561;28;19925;-69
2023/05/11 07:21:20;;;;;;;;;;;11.60;99.90;;;;;;5073319;28;19931;-69
2023/05/11 07:23:46;;;;;;;;;;;11.60;99.90;;;;;;5069523;28;20017;-69
2023/05/11 07:26:12;;;;;;;;;;;11.90;99.90;;;;;;5071930;28;19970;-69
2023/05/11 07:28:38;;;;;;;;;;;11.80;99.90;;;;;;5059812;28;19960;-69
2023/05/11 07:31:04;;;;;;;;;;;11.80;99.90;;;;;;5069793;28;20436;-69
2023/05/11 07:33:29;;;;;;;;;;;11.80;99.90;;;;;;5054308;28;20050;-69
2023/05/11 07:35:55;;;;;;;;;;;11.80;99.90;;;;;;5074249;28;19931;-69
2023/05/11 07:38:20;;;;;;;;;;;11.90;99.90;;;;;;5061750;28;19925;-70
2023/05/11 07:40:46;;;;;;;;;;;11.90;99.90;;;;;;5053872;28;20321;-69
2023/05/11 07:43:11;;;;;;;;;;;11.90;99.90;;;;;;5054280;28;19931;-69
2023/05/11 07:45:37;;;;;;;;;;;12.00;99.90;;;;;;5054582;28;20390;-69
2023/05/11 07:48:03;;;;;;;;;;;12.00;99.90;;;;;;5057803;28;19931;-68
2023/05/11 07:50:28;;;;;;;;;;;11.90;99.90;;;;;;5056036;28;19999;-69
2023/05/11 07:52:54;;;;;;;;;;;12.00;99.90;;;;;;5067131;28;19925;-69
2023/05/11 07:55:23;;;;;;;;;;;12.00;99.90;;;;;;5052771;28;19925;-69
2023/05/11 07:57:50;;;;;;;;;;;12.00;99.90;;;;;;5055591;28;19986;-69
2023/05/11 08:00:15;;;;;;;;;;;12.00;99.90;;;;;;5054610;28;19937;-69
2023/05/11 08:02:41;;;;;;;;;;;12.00;99.90;;;;;;5073637;28;19993;-69
2023/05/11 08:05:07;;;;;;;;;;;11.90;99.90;;;;;;5073599;28;19924;-70
2023/05/11 08:07:33;;;;;;;;;;;12.00;99.90;;;;;;5057264;28;20279;-70
2023/05/11 08:09:59;;;;;;;;;;;12.00;99.90;;;;;;5053667;28;19932;-69
2023/05/11 08:12:24;;;;;;;;;;;12.00;99.90;;;;;;5054004;28;19960;-69
2023/05/11 08:14:50;;;;;;;;;;;12.00;99.90;;;;;;5048531;28;19925;-69
2023/05/11 08:17:15;;;;;;;;;;;12.00;99.90;;;;;;5073688;28;19929;-70
2023/05/11 08:19:41;;;;;;;;;;;12.00;99.90;;;;;;5066081;28;19975;-69
2023/05/11 08:22:06;;;;;;;;;;;12.00;99.90;;;;;;5053414;28;20012;-69
2023/05/11 08:24:32;;;;;;;;;;;12.10;99.90;;;;;;5053718;28;20302;-69
2023/05/11 08:26:57;;;;;;;;;;;12.00;99.90;;;;;;5053951;28;19929;-69
2023/05/11 08:29:26;;;;;;;;;;;12.00;99.90;;;;;;5034910;28;19928;-69
2023/05/11 08:31:51;;;;;;;;;;;12.00;99.90;;;;;;5066822;28;19925;-69
2023/05/11 08:34:17;;;;;;;;;;;12.00;99.90;;;;;;5056875;28;19924;-69
2023/05/11 08:36:43;;;;;;;;;;;11.90;99.90;;;;;;5071862;28;20279;-68
2023/05/11 08:39:08;;;;;;;;;;;12.00;99.90;;;;;;5054880;28;19924;-68
2023/05/11 08:41:34;;;;;;;;;;;12.00;99.90;;;;;;5073426;28;19985;-68
2023/05/11 08:44:00;;;;;;;;;;;12.00;99.90;;;;;;5053723;28;20392;-68
2023/05/11 08:46:28;;;;;;;;;;;12.00;99.90;;;;;;5060881;28;20033;-68
2023/05/11 08:48:54;;;;;;;;;;;12.10;99.90;;;;;;5073158;28;20025;-69
2023/05/11 08:51:20;;;;;;;;;;;12.10;99.90;;;;;;5073092;28;20400;-68
2023/05/11 08:53:45;;;;;;;;;;;12.10;99.90;;;;;;5071252;28;19924;-69
2023/05/11 08:56:11;;;;;;;;;;;12.10;99.90;;;;;;5053154;28;19925;-69
2023/05/11 08:58:37;;;;;;;;;;;12.20;99.90;;;;;;5052889;28;19929;-68
2023/05/11 09:01:04;;;;;;;;;;;12.20;99.90;;;;;;5052753;28;19931;-69
2023/05/11 09:03:30;;;;;;;;;;;12.30;99.90;;;;;;5070349;28;19943;-68
2023/05/11 09:05:56;;;;;;;;;;;12.30;99.90;;;;;;5071163;28;19985;-68
2023/05/11 09:08:22;;;;;;;;;;;12.40;99.90;;;;;;5073138;28;19978;-69
2023/05/11 09:10:48;;;;;;;;;;;12.40;99.90;;;;;;5062016;28;20321;-69
2023/05/11 09:13:14;;;;;;;;;;;12.40;99.90;;;;;;5053070;28;19975;-70
2023/05/11 09:15:39;;;;;;;;;;;12.50;99.90;;;;;;5056179;28;19979;-69
2023/05/11 09:18:05;;;;;;;;;;;12.50;99.90;;;;;;5052814;28;20394;-68
2023/05/11 09:20:31;;;;;;;;;;;12.60;99.90;;;;;;5052700;28;20012;-69
2023/05/11 09:22:57;;;;;;;;;;;12.50;99.90;;;;;;5053418;28;19932;-69
2023/05/11 09:25:24;;;;;;;;;;;12.60;99.90;;;;;;5052544;28;19925;-69
2023/05/11 09:27:50;;;;;;;;;;;12.60;99.90;;;;;;5058242;28;19924;-69
2023/05/11 09:30:16;;;;;;;;;;;12.70;99.90;;;;;;5072967;28;19937;-70
2023/05/11 09:32:49;;;;;;;;;;;12.80;99.90;;;;;;5072825;28;19924;-68
2023/05/11 09:35:18;;;;;;;;;;;12.90;99.90;;;;;;5057815;28;19960;-69
2023/05/11 09:37:55;;;;;;;;;;;13.00;99.90;;;;;;5070887;28;19932;-69
2023/05/11 09:40:20;;;;;;;;;;;13.10;99.90;;;;;;5069085;28;19925;-69
2023/05/11 09:42:46;;;;;;;;;;;13.20;99.90;;;;;;5063616;28;20358;-69
2023/05/11 09:45:11;;;;;;;;;;;13.30;99.90;;;;;;5053675;28;20377;-68
2023/05/11 09:47:38;;;;;;;;;;;13.40;99.90;;;;;;5071383;28;19924;-69
2023/05/11 09:50:14;;;;;;;;;;;13.50;99.90;;;;;;5062176;28;19925;-69
2023/05/11 09:52:48;;;;;;;;;;;13.50;99.90;;;;;;5052427;28;19924;-69
2023/05/11 09:55:14;;;;;;;;;;;13.60;99.90;;;;;;5052863;28;19968;-69
2023/05/11 09:57:39;;;;;;;;;;;13.80;99.90;;;;;;5052843;28;19976;-70
2023/05/11 10:00:13;;;;;;;;;;;14.00;99.90;;;;;;5044186;28;19933;-73
2023/05/11 10:02:38;;;;;;;;;;;14.00;99.90;;;;;;5052713;28;20034;-68
2023/05/11 10:05:13;;;;;;;;;;;14.10;99.90;;;;;;5055857;28;19940;-69
2023/05/11 10:07:38;;;;;;;;;;;14.00;99.90;;;;;;5062802;28;19961;-69
2023/05/11 10:10:05;;;;;;;;;;;14.00;99.90;;;;;;5053752;28;20027;-69
2023/05/11 10:12:36;;;;;;;;;;;14.00;99.90;;;;;;5072757;28;20470;-69
2023/05/11 10:15:06;;;;;;;;;;;14.00;99.90;;;;;;5057911;28;19925;-69
2023/05/11 10:17:32;;;;;;;;;;;14.10;99.90;;;;;;5052905;28;20306;-69
2023/05/11 10:19:58;;;;;;;;;;;14.00;99.90;;;;;;5056597;28;20011;-68
2023/05/11 10:22:24;;;;;;;;;;;14.00;99.90;;;;;;5075996;28;20293;-69
2023/05/11 10:24:53;;;;;;;;;;;14.20;99.90;;;;;;5076082;28;20015;-69
2023/05/11 10:27:19;;;;;;;;;;;14.30;99.90;;;;;;5075749;28;19930;-69
2023/05/11 10:29:45;;;;;;;;;;;14.50;99.90;;;;;;5057294;28;19928;-68
2023/05/11 10:32:10;;;;;;;;;;;14.50;99.90;;;;;;5057703;28;19931;-70
2023/05/11 10:34:38;;;;;;;;;;;14.60;99.90;;;;;;5060913;28;19929;-70
2023/05/11 10:37:04;;;;;;;;;;;14.70;99.90;;;;;;5055890;28;20015;-70
2023/05/11 10:39:30;;;;;;;;;;;14.90;99.90;;;;;;5055837;28;19929;-70
2023/05/11 10:42:00;;;;;;;;;;;15.00;99.90;;;;;;5055645;28;19947;-70
2023/05/11 10:44:50;;;;;;;;;;;15.10;99.90;;;;;;5055713;28;20016;-70
2023/05/11 10:47:39;;;;;;;;;;;15.10;99.90;;;;;;5055682;28;20055;-69
2023/05/11 10:50:04;;;;;;;;;;;15.10;99.90;;;;;;5044194;28;19971;-69
2023/05/11 10:52:39;;;;;;;;;;;15.20;99.90;;;;;;5057796;28;20386;-69
2023/05/11 10:55:13;;;;;;;;;;;15.30;99.90;;;;;;5074883;28;20014;-70
2023/05/11 10:57:39;;;;;;;;;;;15.40;99.90;;;;;;5078041;28;19924;-70
2023/05/11 11:00:17;;;;;;;;;;;15.60;99.90;;;;;;5075197;28;19978;-70
2023/05/11 11:02:44;;;;;;;;;;;15.40;99.90;;;;;;5059183;28;19978;-69
2023/05/11 11:05:12;;;;;;;;;;;15.30;99.90;;;;;;5062667;28;19925;-70
2023/05/11 11:07:57;;;;;;;;;;;15.30;99.90;;;;;;5063840;28;19924;-69
2023/05/11 11:10:30;;;;;;;;;;;15.40;99.90;;;;;;5055587;28;19948;-69
2023/05/11 11:13:06;;;;;;;;;;;15.50;99.90;;;;;;5055412;28;20019;-70
2023/05/11 11:15:51;;;;;;;;;;;15.50;99.90;;;;;;5054754;28;20015;-70
2023/05/11 11:18:26;;;;;;;;;;;15.60;99.90;;;;;;5053735;28;19925;-68
2023/05/11 11:20:53;;;;;;;;;;;15.50;99.90;;;;;;5054877;28;19933;-69
2023/05/11 11:23:37;;;;;;;;;;;15.60;99.90;;;;;;5054670;28;20430;-69
2023/05/11 11:26:02;;;;;;;;;;;15.70;99.90;;;;;;5068388;28;20011;-69
2023/05/11 11:28:48;;;;;;;;;;;15.70;99.90;;;;;;5074377;28;20028;-70
2023/05/11 11:31:26;;;;;;;;;;;15.70;99.90;;;;;;5054447;28;19925;-69
2023/05/11 11:33:54;;;;;;;;;;;15.80;99.90;;;;;;5054825;28;20302;-70
2023/05/11 11:37:02;;;;;;;;;;;16.10;99.90;;;;;;5063240;28;19925;-69
2023/05/11 11:39:48;;;;;;;;;;;16.50;99.90;;;;;;5054082;28;19932;-69
2023/05/11 11:42:29;;;;;;;;;;;16.90;99.90;;;;;;5036164;28;19979;-70
2023/05/11 11:45:15;;;;;;;;;;;17.10;99.90;;;;;;5053930;28;20440;-70
2023/05/11 11:47:40;;;;;;;;;;;17.40;99.90;;;;;;5036363;28;19929;-70
2023/05/11 11:50:10;;;;;;;;;;;17.40;99.90;;;;;;5036127;28;19931;-70
2023/05/11 11:52:35;;;;;;;;;;;17.10;99.90;;;;;;5053991;28;19931;-69
2023/05/11 11:55:02;;;;;;;;;;;17.10;99.90;;;;;;5053860;28;20345;-69
2023/05/11 11:57:28;;;;;;;;;;;17.40;99.90;;;;;;5053759;28;19924;-70
2023/05/11 11:59:54;;;;;;;;;;;17.80;99.90;;;;;;5062028;28;19985;-70
2023/05/11 12:02:19;;;;;;;;;;;18.00;99.90;;;;;;5073910;28;19924;-70
2023/05/11 12:05:11;;;;;;;;;;;18.20;99.90;;;;;;5071932;28;19925;-69
2023/05/11 12:07:40;;;;;;;;;;;18.00;99.90;;;;;;5066950;28;19924;-68
2023/05/11 12:10:06;;;;;;;;;;;17.90;99.90;;;;;;5053595;28;19925;-68
2023/05/11 12:12:32;;;;;;;;;;;17.80;99.90;;;;;;5054364;28;19928;-69
2023/05/11 12:14:58;;;;;;;;;;;17.70;99.90;;;;;;5053547;28;19986;-69
2023/05/11 12:17:26;;;;;;;;;;;17.70;99.90;;;;;;5053720;28;19961;-68
2023/05/11 12:19:52;;;;;;;;;;;17.60;99.90;;;;;;5065609;28;19925;-69
2023/05/11 12:22:24;;;;;;;;;;;17.60;99.90;;;;;;5055287;28;19924;-69
2023/05/11 12:24:53;;;;;;;;;;;17.40;99.90;;;;;;5055374;28;19924;-69
2023/05/11 12:27:19;;;;;;;;;;;17.40;99.90;;;;;;5064013;28;19972;-69
2023/05/11 12:29:51;;;;;;;;;;;17.40;99.90;;;;;;5053032;28;19956;-69
2023/05/11 12:32:29;;;;;;;;;;;17.50;99.90;;;;;;5055548;28;19925;-69
2023/05/11 12:35:01;;;;;;;;;;;17.20;99.90;;;;;;5048854;28;19936;-68
2023/05/11 12:37:30;;;;;;;;;;;17.00;99.90;;;;;;5058117;28;19932;-69
2023/05/11 12:39:56;;;;;;;;;;;17.00;99.90;;;;;;5053151;28;19924;-69
2023/05/11 12:42:22;;;;;;;;;;;17.00;99.90;;;;;;5060757;28;20007;-69
2023/05/11 12:44:48;;;;;;;;;;;17.10;99.90;;;;;;5073110;28;19959;-69
2023/05/11 12:47:14;;;;;;;;;;;17.20;99.90;;;;;;5073220;28;19931;-69
2023/05/11 12:49:40;;;;;;;;;;;17.30;99.90;;;;;;5071594;28;20015;-69
2023/05/11 12:52:07;;;;;;;;;;;17.40;99.90;;;;;;5085275;28;19924;-70
2023/05/11 12:54:39;;;;;;;;;;;17.40;99.90;;;;;;5053509;28;20378;-69
2023/05/11 12:57:06;;;;;;;;;;;17.40;99.90;;;;;;5072740;28;19925;-69
2023/05/11 12:59:31;;;;;;;;;;;17.40;99.90;;;;;;5071842;28;19924;-70
2023/05/11 13:02:07;;;;;;;;;;;17.30;99.90;;;;;;5069711;28;20297;-70
2023/05/11 13:04:34;;;;;;;;;;;17.20;99.90;;;;;;5066280;28;19925;-70
2023/05/11 13:07:00;;;;;;;;;;;17.00;99.90;;;;;;5071208;28;19978;-71
2023/05/11 13:09:26;;;;;;;;;;;17.20;99.90;;;;;;5064853;28;19928;-71
2023/05/11 13:12:08;;;;;;;;;;;17.20;99.90;;;;;;5058009;28;19932;-70
2023/05/11 13:14:33;;;;;;;;;;;17.20;99.90;;;;;;5067120;28;20011;-70
2023/05/11 13:16:59;;;;;;;;;;;17.10;99.90;;;;;;5062900;28;20011;-70
2023/05/11 13:19:28;;;;;;;;;;;17.10;99.90;;;;;;5064571;28;19933;-70
2023/05/11 13:21:55;;;;;;;;;;;16.90;99.90;;;;;;5044322;28;19971;-70
2023/05/11 13:24:21;;;;;;;;;;;16.90;99.90;;;;;;5044759;28;19940;-70
2023/05/11 13:26:46;;;;;;;;;;;17.00;99.90;;;;;;5060739;28;19955;-71
2023/05/11 13:29:12;;;;;;;;;;;16.90;99.90;;;;;;5061814;28;20467;-70
2023/05/11 13:31:48;;;;;;;;;;;16.80;99.90;;;;;;5062016;28;19924;-71
2023/05/11 13:34:13;;;;;;;;;;;16.80;99.90;;;;;;5068698;28;19952;-69
2023/05/11 13:36:39;;;;;;;;;;;16.80;99.90;;;;;;5066928;28;20544;-70
2023/05/11 13:39:05;;;;;;;;;;;16.70;99.90;;;;;;5071983;28;19974;-70
2023/05/11 13:41:31;;;;;;;;;;;16.60;99.90;;;;;;5072465;28;20402;-70
2023/05/11 13:43:56;;;;;;;;;;;16.50;99.90;;;;;;5065560;28;20016;-70
2023/05/11 13:46:22;;;;;;;;;;;16.50;99.90;;;;;;5060938;28;19932;-71
2023/05/11 13:48:48;;;;;;;;;;;16.40;99.90;;;;;;5071663;28;19924;-71
2023/05/11 13:51:13;;;;;;;;;;;16.50;99.90;;;;;;5060039;28;19924;-70
2023/05/11 13:53:39;;;;;;;;;;;16.40;99.90;;;;;;5062860;28;19932;-70
2023/05/11 13:56:04;;;;;;;;;;;16.40;99.90;;;;;;5062667;28;19924;-70
2023/05/11 13:58:30;;;;;;;;;;;16.30;99.90;;;;;;5058748;28;19930;-70
2023/05/11 14:00:55;;;;;;;;;;;16.20;99.90;;;;;;5071313;28;19929;-70
2023/05/11 14:03:22;;;;;;;;;;;16.20;99.90;;;;;;5075551;28;19932;-71
2023/05/11 14:05:47;;;;;;;;;;;16.10;99.90;;;;;;5074597;28;20001;-69
2023/05/11 14:08:13;;;;;;;;;;;16.00;99.90;;;;;;5070098;28;20371;-70
2023/05/11 14:10:39;;;;;;;;;;;16.00;99.90;;;;;;5065044;28;20263;-71
2023/05/11 14:13:07;;;;;;;;;;;15.90;99.90;;;;;;5061799;28;19925;-70
2023/05/11 14:15:33;;;;;;;;;;;16.00;99.90;;;;;;5070683;28;19979;-70
2023/05/11 14:18:03;;;;;;;;;;;16.00;99.90;;;;;;5051331;28;20374;-70